createdAt,value
2024-05-09T00:00:56.746Z,11.03
2024-05-09T00:05:01.580Z,11.03
2024-05-09T00:09:08.765Z,11.03
2024-05-09T00:13:13.609Z,11.03
2024-05-09T00:17:18.191Z,11.01
2024-05-09T00:21:22.975Z,10.98
2024-05-09T00:25:30.101Z,10.98
2024-05-09T00:29:34.904Z,10.96
2024-05-09T00:33:39.773Z,10.96
2024-05-09T00:37:44.504Z,10.95
2024-05-09T00:41:51.908Z,10.93
2024-05-09T00:45:58.402Z,10.91
2024-05-09T00:50:05.531Z,10.87
2024-05-09T00:54:12.048Z,10.85
2024-05-09T00:58:23.043Z,10.85
2024-05-09T01:02:28.705Z,10.82
2024-05-09T01:06:33.382Z,10.81
2024-05-09T01:10:38.170Z,10.80
2024-05-09T01:14:45.570Z,10.78
2024-05-09T01:18:50.710Z,10.75
2024-05-09T01:22:56.670Z,10.74
2024-05-09T01:27:03.826Z,10.73
2024-05-09T01:31:08.954Z,10.72
2024-05-09T01:35:13.668Z,10.71
2024-05-09T01:39:18.234Z,10.69
2024-05-09T01:43:25.368Z,10.68
2024-05-09T01:47:30.197Z,10.66
2024-05-09T01:51:35.061Z,10.66
2024-05-09T01:55:39.559Z,10.68
2024-05-09T01:59:46.952Z,10.67
2024-05-09T02:03:51.951Z,10.66
2024-05-09T02:07:57.164Z,10.64
2024-05-09T02:12:01.795Z,10.64
2024-05-09T02:16:13.341Z,10.66
2024-05-09T02:20:26.816Z,10.67
2024-05-09T02:24:35.066Z,10.67
2024-05-09T02:28:39.778Z,10.62
2024-05-09T02:32:47.117Z,10.58
2024-05-09T02:36:51.941Z,10.57
2024-05-09T02:40:56.754Z,10.58
2024-05-09T02:45:01.246Z,10.55
2024-05-09T02:49:08.698Z,10.54
2024-05-09T02:53:14.766Z,10.53
2024-05-09T02:57:19.792Z,10.52
2024-05-09T03:01:22.082Z,10.50
2024-05-09T03:05:29.459Z,10.49
2024-05-09T03:09:34.209Z,10.46
2024-05-09T03:13:41.305Z,10.45
2024-05-09T03:17:45.998Z,10.42
2024-05-09T03:21:53.824Z,10.39
2024-05-09T03:25:58.500Z,10.36
2024-05-09T03:30:05.501Z,10.35
2024-05-09T03:34:11.833Z,10.31
2024-05-09T03:38:19.309Z,10.27
2024-05-09T03:42:24.126Z,10.25
2024-05-09T03:46:28.650Z,10.20
2024-05-09T03:50:35.698Z,10.13
2024-05-09T03:54:48.173Z,10.06
2024-05-09T03:58:53.008Z,10.01
2024-05-09T04:02:57.984Z,9.95
2024-05-09T04:07:02.679Z,9.90
2024-05-09T04:11:10.183Z,9.88
2024-05-09T04:15:15.013Z,9.84
2024-05-09T04:19:20.112Z,9.79
2024-05-09T04:23:24.907Z,9.74
2024-05-09T04:27:32.302Z,9.66
2024-05-09T04:31:39.029Z,9.59
2024-05-09T04:35:45.155Z,9.56
2024-05-09T04:39:50.000Z,9.52
2024-05-09T04:43:57.657Z,9.51
2024-05-09T04:48:03.034Z,9.48
2024-05-09T04:52:08.711Z,9.45
2024-05-09T04:56:13.521Z,9.43
2024-05-09T05:00:28.927Z,9.43
2024-05-09T05:04:40.336Z,9.45
2024-05-09T05:08:44.845Z,9.47
2024-05-09T05:13:05.157Z,9.50
2024-05-09T05:17:12.369Z,9.52
2024-05-09T05:21:17.008Z,9.53
2024-05-09T05:25:21.871Z,9.59
2024-05-09T05:29:26.437Z,9.65
2024-05-09T05:33:33.745Z,9.72
2024-05-09T05:37:38.465Z,9.78
2024-05-09T05:41:43.142Z,9.88
2024-05-09T05:45:48.153Z,9.97
2024-05-09T05:49:55.527Z,10.01
2024-05-09T05:54:00.087Z,10.14
2024-05-09T05:58:04.906Z,10.22
2024-05-09T06:02:06.960Z,10.33
2024-05-09T06:06:16.359Z,10.43
2024-05-09T06:10:25.682Z,10.48
2024-05-09T06:14:34.794Z,10.54
2024-05-09T06:18:39.816Z,10.61
2024-05-09T06:22:47.139Z,10.69
2024-05-09T06:26:52.058Z,10.79
2024-05-09T06:30:56.747Z,10.88
2024-05-09T06:34:58.667Z,10.97
2024-05-09T06:39:06.239Z,11.10
2024-05-09T06:43:14.461Z,11.22
2024-05-09T06:47:19.894Z,11.31
2024-05-09T06:51:24.725Z,11.45
2024-05-09T06:55:32.093Z,11.50
2024-05-09T06:59:36.987Z,11.67
2024-05-09T07:03:44.113Z,11.83
2024-05-09T07:07:49.006Z,11.97
2024-05-09T07:11:56.343Z,12.05
2024-05-09T07:15:58.643Z,12.16
2024-05-09T07:20:05.468Z,12.29
2024-05-09T07:24:12.328Z,12.46
2024-05-09T07:28:21.071Z,12.55
2024-05-09T07:32:26.211Z,12.68
2024-05-09T07:36:30.814Z,12.83
2024-05-09T07:40:37.017Z,12.98
2024-05-09T07:44:44.597Z,13.10
2024-05-09T07:57:04.753Z,13.54
2024-05-09T08:01:12.267Z,13.65
2024-05-09T08:05:14.699Z,13.76
2024-05-09T08:09:21.169Z,13.93
2024-05-09T08:13:26.111Z,13.98
2024-05-09T08:17:33.492Z,14.05
2024-05-09T08:21:38.088Z,14.09
2024-05-09T08:25:42.808Z,14.20
2024-05-09T08:29:47.620Z,14.32
2024-05-09T08:33:56.778Z,14.45
2024-05-09T08:38:01.819Z,14.54
2024-05-09T08:42:10.541Z,14.67
2024-05-09T08:46:18.456Z,14.73
2024-05-09T08:50:35.396Z,14.82
2024-05-09T08:54:43.198Z,14.98
2024-05-09T08:58:48.527Z,14.95
2024-05-09T09:02:54.997Z,15.07
2024-05-09T09:07:03.635Z,15.19
2024-05-09T09:11:08.609Z,15.46
2024-05-09T09:15:13.119Z,15.74
2024-05-09T09:19:18.027Z,15.90
2024-05-09T09:23:27.304Z,16.00
2024-05-09T09:27:29.305Z,16.18
2024-05-09T09:31:34.101Z,16.09
2024-05-09T09:35:39.146Z,16.02
2024-05-09T09:39:49.128Z,15.94
2024-05-09T09:43:56.336Z,15.96
2024-05-09T09:48:02.254Z,16.02
2024-05-09T09:52:11.012Z,16.07
2024-05-09T09:56:20.374Z,16.13
2024-05-09T10:00:30.642Z,16.44
2024-05-09T10:04:38.007Z,16.87
2024-05-09T10:08:43.692Z,17.25
2024-05-09T10:13:00.509Z,17.30
2024-05-09T10:17:08.753Z,17.22
2024-05-09T10:21:23.016Z,17.16
2024-05-09T10:25:27.776Z,17.16
2024-05-09T10:29:34.998Z,17.25
2024-05-09T10:33:41.675Z,17.41
2024-05-09T10:37:46.680Z,17.39
2024-05-09T10:41:53.547Z,17.38
2024-05-09T10:46:01.196Z,17.42
2024-05-09T10:50:15.668Z,17.35
2024-05-09T10:54:28.106Z,17.21
2024-05-09T10:58:33.115Z,17.27
2024-05-09T11:02:40.402Z,17.32
2024-05-09T11:06:45.374Z,17.54
2024-05-09T11:10:48.970Z,17.29
2024-05-09T11:14:56.827Z,17.39
2024-05-09T11:19:04.462Z,17.56
2024-05-09T11:23:09.984Z,17.68
2024-05-09T11:27:15.177Z,17.77
2024-05-09T11:31:19.871Z,17.73
2024-05-09T11:35:29.393Z,17.69
2024-05-09T11:39:33.980Z,17.70
2024-05-09T11:43:38.665Z,17.76
2024-05-09T11:47:43.550Z,18.04
2024-05-09T11:51:50.942Z,18.09
2024-05-09T11:55:55.749Z,18.08
2024-05-09T12:00:00.412Z,18.08
2024-05-09T12:04:05.607Z,18.25
2024-05-09T12:08:14.267Z,18.14
2024-05-09T12:12:18.997Z,18.09
2024-05-09T12:16:24.317Z,17.97
2024-05-09T12:20:36.177Z,17.89
2024-05-09T12:24:46.389Z,18.03
2024-05-09T12:28:51.262Z,18.21
2024-05-09T12:32:53.610Z,18.23
2024-05-09T12:36:59.022Z,18.25
2024-05-09T12:41:06.351Z,18.46
2024-05-09T12:45:11.307Z,18.39
2024-05-09T12:49:18.698Z,18.30
2024-05-09T12:53:24.106Z,18.83
2024-05-09T12:57:31.262Z,19.54
2024-05-09T13:01:35.924Z,20.07
2024-05-09T13:05:41.496Z,20.50
2024-05-09T13:09:46.582Z,20.53
2024-05-09T13:13:54.104Z,20.26
2024-05-09T13:18:02.630Z,20.02
2024-05-09T13:22:08.388Z,19.85
2024-05-09T13:26:13.350Z,19.70
2024-05-09T13:30:26.398Z,19.78
2024-05-09T13:34:39.139Z,20.32
2024-05-09T13:38:41.410Z,20.47
2024-05-09T13:42:48.681Z,20.45
2024-05-09T13:46:56.161Z,20.23
2024-05-09T13:51:00.981Z,20.26
2024-05-09T13:55:05.804Z,20.76
2024-05-09T13:59:11.405Z,21.24
2024-05-09T14:03:20.664Z,21.51
2024-05-09T14:07:25.965Z,21.20
2024-05-09T14:11:30.441Z,20.73
2024-05-09T14:15:34.891Z,20.73
2024-05-09T14:19:42.181Z,20.91
2024-05-09T14:23:47.074Z,21.23
2024-05-09T14:27:52.619Z,21.53
2024-05-09T14:31:57.132Z,21.72
2024-05-09T14:36:04.580Z,21.89
2024-05-09T14:40:21.574Z,22.03
2024-05-09T14:44:34.848Z,22.09
2024-05-09T14:48:39.841Z,21.61
2024-05-09T14:52:47.079Z,21.16
2024-05-09T14:56:51.731Z,20.77
2024-05-09T15:00:56.504Z,20.52
2024-05-09T15:05:01.505Z,20.67
2024-05-09T15:09:07.907Z,20.70
2024-05-09T15:13:15.457Z,20.49
2024-05-09T15:17:21.271Z,20.31
2024-05-09T15:21:26.230Z,20.59
2024-05-09T15:25:33.861Z,21.06
2024-05-09T15:29:39.323Z,21.38
2024-05-09T15:33:44.362Z,21.56
2024-05-09T15:37:49.358Z,21.73
2024-05-09T15:41:57.576Z,21.90
2024-05-09T15:46:02.793Z,21.82
2024-05-09T15:50:09.824Z,21.66
2024-05-09T15:54:21.082Z,21.76
2024-05-09T15:58:30.282Z,22.02
2024-05-09T16:02:35.109Z,22.09
2024-05-09T16:06:40.090Z,22.24
2024-05-09T16:10:46.208Z,22.37
2024-05-09T16:14:54.469Z,22.49
2024-05-09T16:18:59.357Z,22.32
2024-05-09T16:23:04.387Z,22.28
2024-05-09T16:27:08.890Z,22.34
2024-05-09T16:31:16.238Z,22.25
2024-05-09T16:35:20.730Z,22.14
2024-05-09T16:39:25.578Z,22.10
2024-05-09T16:43:29.999Z,22.06
2024-05-09T16:47:37.582Z,22.01
2024-05-09T16:51:42.532Z,22.00
2024-05-09T16:55:47.457Z,21.84
2024-05-09T16:59:52.146Z,21.52
2024-05-09T17:03:59.859Z,21.23
2024-05-09T17:08:04.693Z,20.94
2024-05-09T17:12:09.366Z,20.73
2024-05-09T17:16:15.759Z,20.72
2024-05-09T17:20:29.728Z,20.89
2024-05-09T17:24:38.709Z,21.07
2024-05-09T17:28:43.690Z,21.06
2024-05-09T17:32:48.375Z,21.21
2024-05-09T17:36:55.927Z,21.32
2024-05-09T17:41:00.918Z,21.31
2024-05-09T17:45:06.306Z,21.23
2024-05-09T17:49:11.148Z,21.16
2024-05-09T17:53:19.028Z,20.91
2024-05-09T17:57:23.891Z,20.49
2024-05-09T18:01:28.735Z,20.14
2024-05-09T18:05:31.464Z,19.96
2024-05-09T18:09:38.899Z,19.78
2024-05-09T18:13:43.739Z,19.58
2024-05-09T18:17:48.533Z,19.41
2024-05-09T18:21:53.251Z,19.21
2024-05-09T18:26:01.334Z,18.98
2024-05-09T18:30:09.446Z,18.65
2024-05-09T18:34:16.520Z,18.37
2024-05-09T18:38:25.541Z,18.14
2024-05-09T18:42:32.782Z,17.92
2024-05-09T18:46:37.800Z,17.74
2024-05-09T18:50:42.591Z,17.56
2024-05-09T18:54:47.884Z,17.35
2024-05-09T18:58:55.303Z,17.07
2024-05-09T19:03:00.042Z,16.87
2024-05-09T19:07:05.460Z,16.68
2024-05-09T19:11:10.246Z,16.54
2024-05-09T19:15:18.008Z,16.43
2024-05-09T19:19:23.086Z,16.29
2024-05-09T19:23:27.780Z,16.15
2024-05-09T19:27:32.706Z,15.95
2024-05-09T19:31:40.076Z,15.66
2024-05-09T19:35:45.159Z,15.39
2024-05-09T19:39:50.098Z,15.22
2024-05-09T19:43:54.691Z,15.17
2024-05-09T19:48:02.214Z,15.09
2024-05-09T19:52:07.676Z,14.91
2024-05-09T19:56:12.383Z,14.69
2024-05-09T20:00:22.253Z,14.48
2024-05-09T20:04:37.374Z,14.37
2024-05-09T20:08:42.256Z,14.29
2024-05-09T20:12:47.029Z,14.15
2024-05-09T20:16:51.908Z,14.06
2024-05-09T20:21:00.309Z,14.04
2024-05-09T20:25:05.683Z,13.93
2024-05-09T20:29:10.207Z,13.82
2024-05-09T20:33:14.939Z,13.67
2024-05-09T20:37:23.151Z,13.48
2024-05-09T20:41:27.674Z,13.32
2024-05-09T20:45:32.331Z,13.18
2024-05-09T20:49:37.083Z,13.05
2024-05-09T20:53:44.514Z,12.94
2024-05-09T20:57:49.155Z,12.83
2024-05-09T21:01:54.316Z,12.73
2024-05-09T21:05:59.318Z,12.67
2024-05-09T21:10:15.303Z,12.58
2024-05-09T21:14:24.174Z,12.53
2024-05-09T21:18:28.761Z,12.45
2024-05-09T21:22:33.674Z,12.35
2024-05-09T21:26:41.341Z,12.26
2024-05-09T21:30:46.189Z,12.19
2024-05-09T21:34:50.866Z,12.14
2024-05-09T21:38:55.923Z,12.06
2024-05-09T21:43:04.032Z,11.97
2024-05-09T21:47:09.036Z,11.88
2024-05-09T21:51:16.382Z,11.81
2024-05-09T21:55:21.196Z,11.67
2024-05-09T21:59:28.550Z,11.59
2024-05-09T22:03:33.635Z,11.55
2024-05-09T22:07:35.665Z,11.50
2024-05-09T22:11:40.338Z,11.43
2024-05-09T22:15:47.618Z,11.35
2024-05-09T22:19:52.785Z,11.23
2024-05-09T22:23:57.531Z,11.14
2024-05-09T22:28:02.957Z,11.03
2024-05-09T22:32:10.887Z,10.95
2024-05-09T22:36:13.148Z,10.92
2024-05-09T22:40:28.228Z,10.88
2024-05-09T22:44:41.615Z,10.84
2024-05-09T22:48:49.128Z,10.73
2024-05-09T22:52:54.038Z,10.61
2024-05-09T22:56:58.811Z,10.41
2024-05-09T23:01:03.644Z,10.24
2024-05-09T23:05:11.305Z,10.18
2024-05-09T23:09:16.254Z,10.11
2024-05-09T23:13:21.113Z,10.01
2024-05-09T23:17:26.157Z,9.98
2024-05-09T23:21:33.974Z,9.94
2024-05-09T23:25:41.000Z,9.89
2024-05-09T23:29:46.398Z,9.82
2024-05-09T23:33:51.754Z,9.73
2024-05-09T23:37:58.958Z,9.71
2024-05-09T23:42:03.502Z,9.68
2024-05-09T23:46:08.431Z,9.60
2024-05-09T23:50:20.218Z,9.51
2024-05-09T23:54:30.852Z,9.46
2024-05-09T23:58:35.601Z,9.40
